Strona główna
METAR-TAF:

METAR-TAF

Lotnisko :

Elsenborn

Bütgenbach, Belgia

Szerokość geograficzna: 50-28N, Długość geograficzna: 006-11E, wysokość: 564 m

Aktualna obserwacja pogody

Raport powstał 49 minut temu, godzina 06:55 UTC
Wiatr 9 kt od wschodnio-północny wschód
Temperatura 11°C
Wilgotność 71%
Ciśnienie 1032 hPa
Widzialność 10 km lub więcej

METAR: EBLB 280655Z AUTO 07009KT 9999 NCD 11/06 Q1032 BLU

czas: 09:44 (07:44 UTC)


TAF: brakujący

Obserwacja i prognoza pogody dla ponad 4000 lotnisk (raport METAR i TAF).

Dostępne stacje oznaczono żółtymi i czerwonymi punktami na mapie.

Najedź kursorem aby zobaczyć nazwę stacji.

Kliknij aby zobaczyć obserwacje i prognozy pogody.

Aby zmienić mapę: kliknij na zielony przycisk z czarnym krzyżykiem, aby powiększyć; na zielony przycisk z myślnikiem, aby pomniejszyć; na zielone strzałki, aby przejść do map sąsiednich.


METAR-TAF: